sensor_id;sensor_type;location;lat;lon;timestamp;temperature;humidity
8226;DHT22;4154;48.810;9.012;2023-04-25T00:01:39;8.80;99.90
8226;DHT22;4154;48.810;9.012;2023-04-25T00:06:34;8.90;99.90
8226;DHT22;4154;48.810;9.012;2023-04-25T00:23:45;9.20;99.90
8226;DHT22;4154;48.810;9.012;2023-04-25T00:26:12;8.80;99.90
8226;DHT22;4154;48.810;9.012;2023-04-25T00:28:39;9.00;94.50
8226;DHT22;4154;48.810;9.012;2023-04-25T00:33:32;8.90;99.90
8226;DHT22;4154;48.810;9.012;2023-04-25T00:35:57;9.00;99.90
8226;DHT22;4154;48.810;9.012;2023-04-25T00:40:49;8.90;99.90
8226;DHT22;4154;48.810;9.012;2023-04-25T00:43:15;9.00;99.90
8226;DHT22;4154;48.810;9.012;2023-04-25T00:45:43;8.90;99.90
8226;DHT22;4154;48.810;9.012;2023-04-25T00:50:35;8.90;94.80
8226;DHT22;4154;48.810;9.012;2023-04-25T01:05:15;8.90;99.90
8226;DHT22;4154;48.810;9.012;2023-04-25T01:10:08;9.00;99.90
8226;DHT22;4154;48.810;9.012;2023-04-25T01:12:34;8.80;99.90
8226;DHT22;4154;48.810;9.012;2023-04-25T01:15:00;8.70;99.90
8226;DHT22;4154;48.810;9.012;2023-04-25T01:27:12;8.70;99.90
8226;DHT22;4154;48.810;9.012;2023-04-25T01:32:05;8.80;95.50
8226;DHT22;4154;48.810;9.012;2023-04-25T01:36:59;8.80;99.90
8226;DHT22;4154;48.810;9.012;2023-04-25T01:39:26;9.00;99.90
8226;DHT22;4154;48.810;9.012;2023-04-25T01:44:18;8.80;99.90
8226;DHT22;4154;48.810;9.012;2023-04-25T01:46:44;8.60;99.90
8226;DHT22;4154;48.810;9.012;2023-04-25T01:54:02;9.00;99.90
8226;DHT22;4154;48.810;9.012;2023-04-25T01:56:32;8.70;99.90
8226;DHT22;4154;48.810;9.012;2023-04-25T02:03:50;8.70;99.90
8226;DHT22;4154;48.810;9.012;2023-04-25T02:06:16;8.60;99.90
8226;DHT22;4154;48.810;9.012;2023-04-25T02:11:08;8.80;99.90
8226;DHT22;4154;48.810;9.012;2023-04-25T02:15:59;8.80;99.90
8226;DHT22;4154;48.810;9.012;2023-04-25T02:18:25;8.50;99.90
8226;DHT22;4154;48.810;9.012;2023-04-25T02:28:11;8.50;95.90
8226;DHT22;4154;48.810;9.012;2023-04-25T02:33:03;8.40;99.80
8226;DHT22;4154;48.810;9.012;2023-04-25T02:35:29;8.40;99.90
8226;DHT22;4154;48.810;9.012;2023-04-25T02:37:54;8.40;99.90
8226;DHT22;4154;48.810;9.012;2023-04-25T02:40:20;8.20;99.90
8226;DHT22;4154;48.810;9.012;2023-04-25T02:50:04;8.20;99.90
8226;DHT22;4154;48.810;9.012;2023-04-25T03:02:15;8.30;99.90
8226;DHT22;4154;48.810;9.012;2023-04-25T03:04:40;8.20;99.90
8226;DHT22;4154;48.810;9.012;2023-04-25T03:09:32;8.40;99.90
8226;DHT22;4154;48.810;9.012;2023-04-25T03:11:58;8.20;96.50
8226;DHT22;4154;48.810;9.012;2023-04-25T03:14:24;8.50;99.90
8226;DHT22;4154;48.810;9.012;2023-04-25T03:31:28;8.30;99.90
8226;DHT22;4154;48.810;9.012;2023-04-25T03:33:54;8.10;99.90
8226;DHT22;4154;48.810;9.012;2023-04-25T03:38:45;8.20;99.90
8226;DHT22;4154;48.810;9.012;2023-04-25T03:41:12;8.00;99.90
8226;DHT22;4154;48.810;9.012;2023-04-25T03:46:04;8.10;99.90
8226;DHT22;4154;48.810;9.012;2023-04-25T03:48:29;8.10;99.90
8226;DHT22;4154;48.810;9.012;2023-04-25T03:50:55;8.40;99.90
8226;DHT22;4154;48.810;9.012;2023-04-25T03:55:47;8.30;99.90
8226;DHT22;4154;48.810;9.012;2023-04-25T04:03:05;9.10;99.90
8226;DHT22;4154;48.810;9.012;2023-04-25T04:15:17;8.00;99.90
8226;DHT22;4154;48.810;9.012;2023-04-25T04:20:09;8.20;99.90
8226;DHT22;4154;48.810;9.012;2023-04-25T04:22:35;8.00;99.90
8226;DHT22;4154;48.810;9.012;2023-04-25T04:29:54;8.30;99.90
8226;DHT22;4154;48.810;9.012;2023-04-25T04:34:46;8.10;99.90
8226;DHT22;4154;48.810;9.012;2023-04-25T04:39:38;8.10;99.90
8226;DHT22;4154;48.810;9.012;2023-04-25T05:01:36;8.20;96.70
8226;DHT22;4154;48.810;9.012;2023-04-25T05:04:02;8.00;99.90
8226;DHT22;4154;48.810;9.012;2023-04-25T05:06:29;8.20;96.90
8226;DHT22;4154;48.810;9.012;2023-04-25T05:08:57;8.30;99.90
8226;DHT22;4154;48.810;9.012;2023-04-25T05:11:23;8.10;99.90
8226;DHT22;4154;48.810;9.012;2023-04-25T05:13:51;8.30;96.40
8226;DHT22;4154;48.810;9.012;2023-04-25T05:16:18;8.10;99.90
8226;DHT22;4154;48.810;9.012;2023-04-25T05:21:10;8.30;99.90
8226;DHT22;4154;48.810;9.012;2023-04-25T05:30:54;8.20;99.90
8226;DHT22;4154;48.810;9.012;2023-04-25T05:35:46;8.10;99.90
8226;DHT22;4154;48.810;9.012;2023-04-25T05:40:37;8.30;99.90
8226;DHT22;4154;48.810;9.012;2023-04-25T05:45:29;8.10;99.90
8226;DHT22;4154;48.810;9.012;2023-04-25T05:57:40;8.40;99.90
8226;DHT22;4154;48.810;9.012;2023-04-25T06:00:08;8.30;99.90
8226;DHT22;4154;48.810;9.012;2023-04-25T06:07:29;8.50;99.90
8226;DHT22;4154;48.810;9.012;2023-04-25T06:14:51;8.40;99.90
8226;DHT22;4154;48.810;9.012;2023-04-25T06:27:01;8.50;99.90
8226;DHT22;4154;48.810;9.012;2023-04-25T06:29:27;8.40;99.90
8226;DHT22;4154;48.810;9.012;2023-04-25T06:31:53;8.70;96.40
8226;DHT22;4154;48.810;9.012;2023-04-25T06:41:37;8.90;99.90
8226;DHT22;4154;48.810;9.012;2023-04-25T06:44:03;8.90;99.90
8226;DHT22;4154;48.810;9.012;2023-04-25T06:46:29;9.00;99.90
8226;DHT22;4154;48.810;9.012;2023-04-25T06:48:55;9.00;99.90
8226;DHT22;4154;48.810;9.012;2023-04-25T06:51:20;8.80;99.90
8226;DHT22;4154;48.810;9.012;2023-04-25T06:58:38;8.70;99.90
8226;DHT22;4154;48.810;9.012;2023-04-25T07:01:04;9.00;99.90
8226;DHT22;4154;48.810;9.012;2023-04-25T07:03:30;8.90;99.90
8226;DHT22;4154;48.810;9.012;2023-04-25T07:08:21;8.70;99.90
8226;DHT22;4154;48.810;9.012;2023-04-25T07:15:39;8.80;99.90
8226;DHT22;4154;48.810;9.012;2023-04-25T07:18:05;8.70;99.90
8226;DHT22;4154;48.810;9.012;2023-04-25T07:20:30;8.50;99.90
8226;DHT22;4154;48.810;9.012;2023-04-25T07:32:42;9.00;99.90
8226;DHT22;4154;48.810;9.012;2023-04-25T07:35:08;8.70;99.90
8226;DHT22;4154;48.810;9.012;2023-04-25T07:37:36;8.60;99.00
8226;DHT22;4154;48.810;9.012;2023-04-25T07:40:05;8.60;99.90
8226;DHT22;4154;48.810;9.012;2023-04-25T07:54:44;8.70;99.90
8226;DHT22;4154;48.810;9.012;2023-04-25T08:04:28;8.50;99.90
8226;DHT22;4154;48.810;9.012;2023-04-25T08:06:54;8.60;99.90
8226;DHT22;4154;48.810;9.012;2023-04-25T08:11:47;8.70;99.90
8226;DHT22;4154;48.810;9.012;2023-04-25T08:14:13;8.80;99.20
8226;DHT22;4154;48.810;9.012;2023-04-25T08:26:25;8.70;99.70
8226;DHT22;4154;48.810;9.012;2023-04-25T08:31:17;8.80;99.80
8226;DHT22;4154;48.810;9.012;2023-04-25T08:46:00;8.60;99.90
8226;DHT22;4154;48.810;9.012;2023-04-25T08:48:32;8.30;99.90
8226;DHT22;4154;48.810;9.012;2023-04-25T08:51:01;8.50;99.90
8226;DHT22;4154;48.810;9.012;2023-04-25T08:53:32;8.40;99.90
8226;DHT22;4154;48.810;9.012;2023-04-25T08:56:00;8.80;99.90
8226;DHT22;4154;48.810;9.012;2023-04-25T08:58:31;8.50;99.90
8226;DHT22;4154;48.810;9.012;2023-04-25T09:08:18;8.80;99.90
8226;DHT22;4154;48.810;9.012;2023-04-25T09:10:43;8.50;99.90
8226;DHT22;4154;48.810;9.012;2023-04-25T09:13:13;8.70;99.90
8226;DHT22;4154;48.810;9.012;2023-04-25T09:18:26;8.60;99.90
8226;DHT22;4154;48.810;9.012;2023-04-25T09:21:04;8.60;99.90
8226;DHT22;4154;48.810;9.012;2023-04-25T09:23:44;8.80;99.90
8226;DHT22;4154;48.810;9.012;2023-04-25T09:26:17;8.60;99.90
8226;DHT22;4154;48.810;9.012;2023-04-25T09:31:24;8.60;99.90
8226;DHT22;4154;48.810;9.012;2023-04-25T09:34:01;8.70;99.90
8226;DHT22;4154;48.810;9.012;2023-04-25T09:41:24;8.40;99.90
8226;DHT22;4154;48.810;9.012;2023-04-25T09:48:50;8.70;99.90
8226;DHT22;4154;48.810;9.012;2023-04-25T09:53:46;8.40;99.90
8226;DHT22;4154;48.810;9.012;2023-04-25T09:58:42;8.90;99.90
8226;DHT22;4154;48.810;9.012;2023-04-25T10:01:09;8.50;99.90
8226;DHT22;4154;48.810;9.012;2023-04-25T10:03:39;8.30;99.90
8226;DHT22;4154;48.810;9.012;2023-04-25T10:06:19;8.60;99.90
8226;DHT22;4154;48.810;9.012;2023-04-25T10:08:50;8.60;99.90
8226;DHT22;4154;48.810;9.012;2023-04-25T10:16:11;8.20;99.90
8226;DHT22;4154;48.810;9.012;2023-04-25T10:21:04;8.20;99.80
8226;DHT22;4154;48.810;9.012;2023-04-25T10:23:32;8.20;99.90
8226;DHT22;4154;48.810;9.012;2023-04-25T10:31:04;8.20;99.90
8226;DHT22;4154;48.810;9.012;2023-04-25T10:33:37;7.90;99.90
8226;DHT22;4154;48.810;9.012;2023-04-25T10:36:17;8.00;99.90
8226;DHT22;4154;48.810;9.012;2023-04-25T10:38:45;8.00;99.10
8226;DHT22;4154;48.810;9.012;2023-04-25T10:41:13;8.00;99.40
8226;DHT22;4154;48.810;9.012;2023-04-25T10:43:43;8.10;99.90
8226;DHT22;4154;48.810;9.012;2023-04-25T10:46:23;7.70;99.90
8226;DHT22;4154;48.810;9.012;2023-04-25T10:48:55;7.90;99.90
8226;DHT22;4154;48.810;9.012;2023-04-25T10:51:31;7.90;99.90
8226;DHT22;4154;48.810;9.012;2023-04-25T10:56:27;7.80;99.90
8226;DHT22;4154;48.810;9.012;2023-04-25T10:59:08;7.90;99.90
8226;DHT22;4154;48.810;9.012;2023-04-25T11:01:43;7.90;99.90
8226;DHT22;4154;48.810;9.012;2023-04-25T11:04:29;7.70;99.90
8226;DHT22;4154;48.810;9.012;2023-04-25T11:09:48;8.00;99.40
8226;DHT22;4154;48.810;9.012;2023-04-25T11:24:32;8.00;99.50
8226;DHT22;4154;48.810;9.012;2023-04-25T11:36:56;7.90;99.90
8226;DHT22;4154;48.810;9.012;2023-04-25T11:39:24;8.20;99.90
8226;DHT22;4154;48.810;9.012;2023-04-25T11:44:17;7.60;99.90
8226;DHT22;4154;48.810;9.012;2023-04-25T11:51:44;8.30;99.90
8226;DHT22;4154;48.810;9.012;2023-04-25T11:54:12;7.90;99.90
8226;DHT22;4154;48.810;9.012;2023-04-25T11:56:45;7.80;99.90
8226;DHT22;4154;48.810;9.012;2023-04-25T11:59:11;7.80;99.90
8226;DHT22;4154;48.810;9.012;2023-04-25T12:01:39;7.90;99.90
8226;DHT22;4154;48.810;9.012;2023-04-25T12:04:15;7.80;99.90
8226;DHT22;4154;48.810;9.012;2023-04-25T12:06:42;8.00;99.50
8226;DHT22;4154;48.810;9.012;2023-04-25T12:09:10;8.00;99.30
8226;DHT22;4154;48.810;9.012;2023-04-25T12:11:45;7.70;99.90
8226;DHT22;4154;48.810;9.012;2023-04-25T12:14:30;7.90;99.90
8226;DHT22;4154;48.810;9.012;2023-04-25T12:16:59;8.20;99.90
8226;DHT22;4154;48.810;9.012;2023-04-25T12:19:26;8.30;99.50
8226;DHT22;4154;48.810;9.012;2023-04-25T12:22:00;8.40;99.90
8226;DHT22;4154;48.810;9.012;2023-04-25T12:27:05;8.50;99.90
8226;DHT22;4154;48.810;9.012;2023-04-25T12:36:57;9.10;99.90
8226;DHT22;4154;48.810;9.012;2023-04-25T12:39:24;8.90;99.90
8226;DHT22;4154;48.810;9.012;2023-04-25T12:46:46;9.00;98.90
8226;DHT22;4154;48.810;9.012;2023-04-25T13:03:55;9.40;99.90
8226;DHT22;4154;48.810;9.012;2023-04-25T13:08:47;9.40;99.90
8226;DHT22;4154;48.810;9.012;2023-04-25T13:13:40;9.80;99.90
8226;DHT22;4154;48.810;9.012;2023-04-25T13:23:27;9.60;99.90
8226;DHT22;4154;48.810;9.012;2023-04-25T13:28:25;9.50;99.90
8226;DHT22;4154;48.810;9.012;2023-04-25T13:33:18;9.30;99.90
8226;DHT22;4154;48.810;9.012;2023-04-25T13:57:45;10.50;99.90
8226;DHT22;4154;48.810;9.012;2023-04-25T14:00:11;10.60;99.90
8226;DHT22;4154;48.810;9.012;2023-04-25T14:05:04;10.80;99.90
8226;DHT22;4154;48.810;9.012;2023-04-25T14:09:58;10.80;99.90
8226;DHT22;4154;48.810;9.012;2023-04-25T14:12:24;11.00;99.90
8226;DHT22;4154;48.810;9.012;2023-04-25T14:19:44;11.10;99.90
8226;DHT22;4154;48.810;9.012;2023-04-25T14:24:40;11.00;99.90
8226;DHT22;4154;48.810;9.012;2023-04-25T14:31:59;11.00;99.90
8226;DHT22;4154;48.810;9.012;2023-04-25T14:34:25;11.10;99.90
8226;DHT22;4154;48.810;9.012;2023-04-25T14:36:51;10.90;94.60
8226;DHT22;4154;48.810;9.012;2023-04-25T14:46:36;11.10;99.90
8226;DHT22;4154;48.810;9.012;2023-04-25T14:49:02;11.30;96.70
8226;DHT22;4154;48.810;9.012;2023-04-25T14:53:56;10.90;99.90
8226;DHT22;4154;48.810;9.012;2023-04-25T14:58:48;10.80;99.90
8226;DHT22;4154;48.810;9.012;2023-04-25T15:13:26;11.90;99.90
8226;DHT22;4154;48.810;9.012;2023-04-25T15:18:20;11.00;99.90
8226;DHT22;4154;48.810;9.012;2023-04-25T15:20:51;11.50;99.90
8226;DHT22;4154;48.810;9.012;2023-04-25T15:23:18;11.40;99.90
8226;DHT22;4154;48.810;9.012;2023-04-25T15:28:10;11.30;99.90
8226;DHT22;4154;48.810;9.012;2023-04-25T15:37:55;11.30;99.90
8226;DHT22;4154;48.810;9.012;2023-04-25T15:40:20;11.10;99.90
8226;DHT22;4154;48.810;9.012;2023-04-25T15:42:48;11.50;92.60
8226;DHT22;4154;48.810;9.012;2023-04-25T15:45:19;11.40;92.30
8226;DHT22;4154;48.810;9.012;2023-04-25T15:47:49;12.10;99.60
8226;DHT22;4154;48.810;9.012;2023-04-25T15:50:17;11.40;99.90
8226;DHT22;4154;48.810;9.012;2023-04-25T15:55:10;11.10;99.90
8226;DHT22;4154;48.810;9.012;2023-04-25T16:00:05;11.00;99.90
8226;DHT22;4154;48.810;9.012;2023-04-25T16:02:41;10.90;92.90
8226;DHT22;4154;48.810;9.012;2023-04-25T16:12:28;10.80;93.30
8226;DHT22;4154;48.810;9.012;2023-04-25T16:14:55;10.70;99.90
8226;DHT22;4154;48.810;9.012;2023-04-25T16:24:45;10.90;94.00
8226;DHT22;4154;48.810;9.012;2023-04-25T16:27:10;10.90;99.90
8226;DHT22;4154;48.810;9.012;2023-04-25T16:29:37;10.90;99.90
8226;DHT22;4154;48.810;9.012;2023-04-25T16:34:29;10.90;99.90
8226;DHT22;4154;48.810;9.012;2023-04-25T16:36:55;10.80;99.90
8226;DHT22;4154;48.810;9.012;2023-04-25T16:46:40;10.80;99.90
8226;DHT22;4154;48.810;9.012;2023-04-25T16:49:06;10.70;99.90
8226;DHT22;4154;48.810;9.012;2023-04-25T17:11:07;10.60;99.90
8226;DHT22;4154;48.810;9.012;2023-04-25T17:18:26;10.30;99.90
8226;DHT22;4154;48.810;9.012;2023-04-25T17:35:31;10.10;99.90
8226;DHT22;4154;48.810;9.012;2023-04-25T17:40:24;9.30;96.50
8226;DHT22;4154;48.810;9.012;2023-04-25T17:47:43;8.60;99.90
8226;DHT22;4154;48.810;9.012;2023-04-25T17:55:05;8.50;98.60
8226;DHT22;4154;48.810;9.012;2023-04-25T18:04:49;8.60;99.90
8226;DHT22;4154;48.810;9.012;2023-04-25T18:24:22;8.30;99.90
8226;DHT22;4154;48.810;9.012;2023-04-25T18:39:07;8.10;99.90
8226;DHT22;4154;48.810;9.012;2023-04-25T18:41:35;8.20;99.80
8226;DHT22;4154;48.810;9.012;2023-04-25T18:46:30;8.20;99.90
8226;DHT22;4154;48.810;9.012;2023-04-25T19:06:25;8.70;99.90
8226;DHT22;4154;48.810;9.012;2023-04-25T19:13:49;8.30;99.90
8226;DHT22;4154;48.810;9.012;2023-04-25T19:23:37;8.20;99.90
8226;DHT22;4154;48.810;9.012;2023-04-25T19:30:56;8.30;99.90
8226;DHT22;4154;48.810;9.012;2023-04-25T19:33:23;8.20;99.90
8226;DHT22;4154;48.810;9.012;2023-04-25T19:35:49;7.90;99.90
8226;DHT22;4154;48.810;9.012;2023-04-25T19:38:15;8.50;99.90
8226;DHT22;4154;48.810;9.012;2023-04-25T19:52:57;8.30;99.90
8226;DHT22;4154;48.810;9.012;2023-04-25T20:00:16;8.20;99.90
8226;DHT22;4154;48.810;9.012;2023-04-25T20:02:43;8.20;99.90
8226;DHT22;4154;48.810;9.012;2023-04-25T20:10:05;8.10;99.90
8226;DHT22;4154;48.810;9.012;2023-04-25T20:12:34;8.20;99.90
8226;DHT22;4154;48.810;9.012;2023-04-25T20:15:08;8.20;99.90
8226;DHT22;4154;48.810;9.012;2023-04-25T20:30:05;8.10;99.90
8226;DHT22;4154;48.810;9.012;2023-04-25T20:35:00;8.10;99.90
8226;DHT22;4154;48.810;9.012;2023-04-25T20:39:58;8.10;99.90
8226;DHT22;4154;48.810;9.012;2023-04-25T20:44:51;7.80;99.90
8226;DHT22;4154;48.810;9.012;2023-04-25T20:49:44;8.00;99.90
8226;DHT22;4154;48.810;9.012;2023-04-25T20:54:36;8.20;99.90
8226;DHT22;4154;48.810;9.012;2023-04-25T21:04:21;8.10;99.90
8226;DHT22;4154;48.810;9.012;2023-04-25T21:06:47;8.00;99.90
8226;DHT22;4154;48.810;9.012;2023-04-25T21:50:45;7.90;99.90
8226;DHT22;4154;48.810;9.012;2023-04-25T21:55:37;7.90;99.90
8226;DHT22;4154;48.810;9.012;2023-04-25T22:02:56;7.80;99.90
8226;DHT22;4154;48.810;9.012;2023-04-25T22:07:53;7.90;99.90
8226;DHT22;4154;48.810;9.012;2023-04-25T22:10:22;7.80;99.90
8226;DHT22;4154;48.810;9.012;2023-04-25T22:15:18;7.70;99.90
8226;DHT22;4154;48.810;9.012;2023-04-25T22:20:19;7.60;99.90
8226;DHT22;4154;48.810;9.012;2023-04-25T22:32:40;7.70;99.90
8226;DHT22;4154;48.810;9.012;2023-04-25T22:35:06;7.70;99.90
8226;DHT22;4154;48.810;9.012;2023-04-25T22:40:03;7.70;97.40
8226;DHT22;4154;48.810;9.012;2023-04-25T22:42:41;7.50;99.90
8226;DHT22;4154;48.810;9.012;2023-04-25T22:45:09;7.70;99.90
8226;DHT22;4154;48.810;9.012;2023-04-25T22:50:03;7.80;96.60
8226;DHT22;4154;48.810;9.012;2023-04-25T22:57:29;7.90;99.90
8226;DHT22;4154;48.810;9.012;2023-04-25T23:17:02;7.60;99.90
8226;DHT22;4154;48.810;9.012;2023-04-25T23:19:27;7.60;99.90
8226;DHT22;4154;48.810;9.012;2023-04-25T23:38:56;7.70;99.90
